Time;durP1;ratioP1;P1;durP2;ratioP2;P2;SDS_P1;SDS_P2;PMS_P1;PMS_P2;Temp;Humidity;BMP_temperature;BMP_pressure;BME280_temperature;BME280_humidity;BME280_pressure;Samples;Min_cycle;Max_cycle;Signal;HPM_P1;HPM_P2
2022/01/02 00:03:00;;;;;;;8.40;7.60;;;6.70;99.90;;;;;;6302185;28;20492;-62
2022/01/02 00:06:05;;;;;;;12.07;8.70;;;6.70;99.90;;;;;;6302830;28;20469;-62
2022/01/02 00:09:08;;;;;;;9.93;8.17;;;6.60;99.90;;;;;;6302160;28;20941;-62
2022/01/02 00:12:13;;;;;;;8.07;7.03;;;6.60;99.90;;;;;;6302091;28;20961;-62
2022/01/02 00:15:19;;;;;;;9.80;6.87;;;6.60;99.90;;;;;;6302590;28;20477;-62
2022/01/02 00:18:28;;;;;;;8.50;7.27;;;6.60;99.90;;;;;;6302017;28;20691;-63
2022/01/02 00:21:33;;;;;;;8.57;7.67;;;6.60;99.90;;;;;;6301897;28;20481;-63
2022/01/02 00:24:37;;;;;;;8.67;6.87;;;6.60;99.90;;;;;;6301677;28;20473;-62
2022/01/02 00:27:42;;;;;;;9.33;7.70;;;6.60;99.90;;;;;;6301856;28;20500;-63
2022/01/02 00:30:48;;;;;;;9.77;7.60;;;6.60;99.90;;;;;;6300417;28;20488;-62
2022/01/02 00:33:53;;;;;;;8.30;7.30;;;6.60;99.90;;;;;;6300226;28;20523;-62
2022/01/02 00:36:57;;;;;;;9.43;7.40;;;6.60;99.90;;;;;;6299738;28;20468;-63
2022/01/02 00:40:00;;;;;;;10.60;7.93;;;6.60;99.90;;;;;;6300494;28;20448;-62
2022/01/02 00:43:05;;;;;;;9.63;7.80;;;6.60;99.90;;;;;;6300076;28;20916;-63
2022/01/02 00:46:10;;;;;;;9.83;8.40;;;6.60;99.90;;;;;;6300875;28;20503;-63
2022/01/02 00:49:18;;;;;;;11.00;9.20;;;6.50;99.90;;;;;;6301896;28;20457;-64
2022/01/02 00:52:23;;;;;;;13.43;11.27;;;6.40;99.90;;;;;;6301698;28;20469;-62
2022/01/02 00:55:26;;;;;;;14.30;11.30;;;6.40;99.90;;;;;;6301433;28;20530;-62
2022/01/02 00:58:35;;;;;;;16.10;11.27;;;6.40;99.90;;;;;;6276550;28;20462;-63
2022/01/02 01:01:41;;;;;;;14.53;11.40;;;6.30;99.90;;;;;;6275975;28;20474;-63
2022/01/02 01:04:45;;;;;;;19.70;13.47;;;6.30;99.90;;;;;;6275996;28;20524;-62
2022/01/02 01:07:52;;;;;;;15.20;12.33;;;6.10;99.90;;;;;;6276387;28;20477;-62
2022/01/02 01:10:55;;;;;;;18.37;13.60;;;6.10;99.90;;;;;;6289778;28;21022;-63
2022/01/02 01:14:00;;;;;;;19.07;14.73;;;6.00;99.90;;;;;;6300743;28;20531;-63
2022/01/02 01:17:04;;;;;;;17.23;15.00;;;5.90;99.90;;;;;;6300840;28;20481;-63
2022/01/02 01:20:12;;;;;;;16.17;13.50;;;5.90;99.90;;;;;;6301093;28;20488;-62
2022/01/02 01:23:17;;;;;;;16.37;14.17;;;5.80;99.90;;;;;;6300986;28;20477;-63
2022/01/02 01:26:20;;;;;;;16.20;14.30;;;5.80;99.90;;;;;;6301085;28;20482;-62
2022/01/02 01:29:23;;;;;;;15.90;13.83;;;5.70;99.90;;;;;;6300171;28;20492;-62
2022/01/02 01:32:27;;;;;;;17.73;14.10;;;5.70;99.90;;;;;;6300551;28;20468;-61
2022/01/02 01:35:30;;;;;;;15.67;12.80;;;5.70;99.90;;;;;;6300506;28;20469;-62
2022/01/02 01:38:35;;;;;;;13.93;12.30;;;5.70;99.90;;;;;;6300105;28;20558;-62
2022/01/02 01:41:39;;;;;;;14.50;10.87;;;5.80;99.90;;;;;;6300007;28;20813;-62
2022/01/02 01:45:04;;;;;;;16.43;12.00;;;5.80;99.90;;;;;;6300117;28;20469;-62
2022/01/02 01:48:08;;;;;;;13.17;11.67;;;5.70;99.90;;;;;;6299843;28;20473;-62
2022/01/02 01:51:11;;;;;;;13.50;11.23;;;5.70;99.90;;;;;;6299670;28;20481;-63
2022/01/02 01:54:16;;;;;;;16.17;12.33;;;5.70;99.90;;;;;;6299781;28;20850;-62
2022/01/02 01:57:20;;;;;;;12.10;10.87;;;5.70;99.90;;;;;;6300043;28;20477;-61
2022/01/02 02:00:24;;;;;;;12.90;10.40;;;5.70;99.90;;;;;;6290838;28;20465;-62
2022/01/02 02:03:27;;;;;;;12.40;9.77;;;5.70;99.90;;;;;;6299589;28;20477;-63
2022/01/02 02:06:31;;;;;;;14.63;10.33;;;5.70;99.90;;;;;;6299890;28;20820;-62
2022/01/02 02:09:50;;;;;;;13.43;11.53;;;5.70;99.90;;;;;;6298031;28;20599;-61
2022/01/02 02:12:54;;;;;;;18.30;12.57;;;5.70;99.90;;;;;;6297485;28;20457;-61
2022/01/02 02:16:00;;;;;;;14.33;13.03;;;5.70;99.90;;;;;;6285033;28;20515;-61
2022/01/02 02:19:04;;;;;;;12.63;11.53;;;5.70;99.90;;;;;;6280757;28;20441;-61
2022/01/02 02:22:09;;;;;;;12.20;11.00;;;5.60;99.90;;;;;;6295145;28;20449;-61
2022/01/02 02:25:13;;;;;;;15.80;12.97;;;5.60;99.90;;;;;;6298361;28;20472;-61
2022/01/02 02:28:17;;;;;;;15.30;13.80;;;5.60;99.90;;;;;;6299412;28;20457;-61
2022/01/02 02:31:21;;;;;;;12.97;11.70;;;5.50;99.90;;;;;;6298192;28;20503;-61
2022/01/02 02:34:24;;;;;;;13.07;10.10;;;5.50;99.90;;;;;;6298829;28;20944;-61
2022/01/02 02:37:30;;;;;;;12.20;10.63;;;5.40;99.90;;;;;;6299190;28;20940;-61
2022/01/02 02:40:33;;;;;;;12.57;10.97;;;5.40;99.90;;;;;;6299686;28;20476;-61
2022/01/02 02:43:44;;;;;;;13.53;10.70;;;5.40;99.90;;;;;;6299928;28;20475;-61
2022/01/02 02:50:08;;;;;;;14.23;11.10;;;5.30;99.90;;;;;;6299866;28;20477;-61
2022/01/02 02:53:12;;;;;;;10.90;9.80;;;5.30;99.90;;;;;;6299690;28;20472;-61
2022/01/02 02:56:20;;;;;;;13.17;10.27;;;5.30;99.90;;;;;;6299479;28;20461;-61
2022/01/02 02:59:25;;;;;;;10.20;9.00;;;5.30;99.90;;;;;;6298962;28;20469;-61
2022/01/02 03:02:28;;;;;;;11.50;9.87;;;5.30;99.90;;;;;;6294471;28;20465;-61
2022/01/02 03:05:32;;;;;;;14.13;9.23;;;5.20;99.90;;;;;;6303738;28;20491;-61
2022/01/02 03:08:37;;;;;;;15.43;10.10;;;5.30;99.90;;;;;;6304465;28;20469;-61
2022/01/02 03:11:42;;;;;;;11.07;9.60;;;5.20;99.90;;;;;;6303648;28;20975;-61
2022/01/02 03:14:45;;;;;;;11.27;10.07;;;5.20;99.90;;;;;;6303789;28;20477;-61
2022/01/02 03:17:50;;;;;;;11.33;9.83;;;5.20;99.90;;;;;;6304054;28;20469;-61
2022/01/02 03:20:54;;;;;;;12.07;8.90;;;5.20;99.90;;;;;;6303790;28;20972;-61
2022/01/02 03:23:58;;;;;;;10.27;8.67;;;5.20;99.90;;;;;;6303544;28;20481;-61
2022/01/02 03:27:01;;;;;;;11.10;8.63;;;5.20;99.90;;;;;;6303384;28;20468;-61
2022/01/02 03:30:05;;;;;;;11.13;9.93;;;5.20;99.90;;;;;;6303471;28;20475;-61
2022/01/02 03:33:09;;;;;;;10.97;9.00;;;5.10;99.90;;;;;;6303594;28;20483;-62
2022/01/02 03:36:12;;;;;;;12.40;9.30;;;5.10;99.90;;;;;;6303619;28;20506;-61
2022/01/02 03:39:16;;;;;;;10.13;8.47;;;5.10;99.90;;;;;;6303385;28;20477;-61
2022/01/02 03:42:19;;;;;;;11.23;8.30;;;5.10;99.90;;;;;;6303541;28;20473;-61
2022/01/02 03:45:22;;;;;;;16.93;12.60;;;5.10;99.90;;;;;;6302744;28;20795;-61
2022/01/02 03:48:26;;;;;;;21.13;18.83;;;5.10;99.90;;;;;;6303372;28;20469;-61
2022/01/02 03:51:29;;;;;;;22.43;20.03;;;5.10;99.90;;;;;;6302983;28;20473;-61
2022/01/02 03:54:33;;;;;;;26.93;23.30;;;5.00;99.90;;;;;;6302784;28;20487;-61
2022/01/02 03:57:36;;;;;;;28.53;21.90;;;5.00;99.90;;;;;;6303104;28;20481;-61
2022/01/02 04:00:39;;;;;;;21.93;19.43;;;5.00;99.90;;;;;;6302992;28;20466;-61
2022/01/02 04:03:43;;;;;;;25.10;17.57;;;5.00;99.90;;;;;;6302718;28;20498;-61
2022/01/02 04:06:46;;;;;;;22.00;17.97;;;5.00;99.90;;;;;;6298826;28;20534;-61
2022/01/02 04:09:51;;;;;;;19.87;17.77;;;5.00;99.90;;;;;;6302387;28;20476;-61
2022/01/02 04:12:54;;;;;;;20.17;17.20;;;4.90;99.90;;;;;;6301169;28;20481;-61
2022/01/02 04:15:57;;;;;;;14.97;13.30;;;4.90;99.90;;;;;;6303237;28;20448;-61
2022/01/02 04:19:00;;;;;;;15.27;12.73;;;4.90;99.90;;;;;;6302888;28;20452;-61
2022/01/02 04:22:03;;;;;;;11.53;10.33;;;4.90;99.90;;;;;;6302335;28;20442;-61
2022/01/02 04:25:09;;;;;;;9.87;8.87;;;4.80;99.90;;;;;;6302373;28;20473;-61
2022/01/02 04:28:12;;;;;;;13.70;11.00;;;4.80;99.90;;;;;;6301985;28;20890;-61
2022/01/02 04:31:15;;;;;;;12.73;10.20;;;4.70;99.90;;;;;;6301572;28;20464;-61
2022/01/02 04:34:18;;;;;;;11.10;10.00;;;4.70;99.90;;;;;;6302066;28;20476;-61
2022/01/02 04:37:21;;;;;;;12.10;10.87;;;4.70;99.90;;;;;;6302388;28;20464;-61
2022/01/02 04:40:26;;;;;;;10.53;9.37;;;4.60;99.90;;;;;;6302208;28;20957;-61
2022/01/02 04:43:29;;;;;;;10.93;9.63;;;4.60;99.90;;;;;;6301641;28;20523;-61
2022/01/02 04:46:32;;;;;;;9.13;7.93;;;4.60;99.90;;;;;;6302169;28;20530;-61
2022/01/02 04:49:36;;;;;;;10.60;9.30;;;4.60;99.90;;;;;;6302131;28;20469;-61
2022/01/02 04:52:39;;;;;;;13.17;10.00;;;4.70;99.90;;;;;;6301191;28;20469;-61
2022/01/02 04:55:43;;;;;;;10.70;9.70;;;4.70;99.90;;;;;;6301512;28;20479;-61
2022/01/02 04:58:47;;;;;;;9.50;8.60;;;4.70;99.90;;;;;;6301124;28;20465;-61
2022/01/02 05:01:50;;;;;;;11.37;9.80;;;4.70;99.90;;;;;;6301158;28;20477;-62
2022/01/02 05:04:53;;;;;;;14.50;10.40;;;4.60;99.90;;;;;;6300667;28;20956;-61
2022/01/02 05:07:56;;;;;;;12.80;10.80;;;4.60;99.90;;;;;;6300944;28;20973;-61
2022/01/02 05:11:01;;;;;;;12.07;10.63;;;4.50;99.90;;;;;;6291768;28;21385;-61
2022/01/02 05:14:04;;;;;;;13.33;10.37;;;4.50;99.90;;;;;;6300886;28;20477;-61
2022/01/02 05:17:08;;;;;;;12.00;10.60;;;4.40;99.90;;;;;;6301271;28;20473;-63
2022/01/02 05:20:11;;;;;;;15.33;10.90;;;4.40;99.90;;;;;;6301021;28;20465;-61
2022/01/02 05:23:14;;;;;;;14.37;10.50;;;4.30;99.90;;;;;;6300425;28;20476;-61
2022/01/02 05:26:19;;;;;;;14.10;10.93;;;4.30;99.90;;;;;;6301009;28;20465;-62
2022/01/02 05:29:22;;;;;;;18.03;11.93;;;4.30;99.90;;;;;;6300784;28;20469;-61
2022/01/02 05:32:25;;;;;;;12.70;10.77;;;4.30;99.90;;;;;;6300968;28;20787;-61
2022/01/02 05:35:29;;;;;;;15.07;12.57;;;4.30;99.90;;;;;;6300064;28;20870;-61
2022/01/02 05:38:33;;;;;;;16.43;12.23;;;4.30;99.90;;;;;;6300796;28;20824;-61
2022/01/02 05:41:37;;;;;;;16.50;14.10;;;4.40;99.90;;;;;;6300688;28;20490;-61
2022/01/02 05:44:40;;;;;;;17.57;12.63;;;4.40;99.90;;;;;;6300331;28;20473;-61
2022/01/02 05:47:43;;;;;;;13.90;12.47;;;4.40;99.90;;;;;;6300798;28;20836;-61
2022/01/02 05:50:47;;;;;;;13.43;10.80;;;4.30;99.90;;;;;;6300685;28;20539;-61
2022/01/02 05:53:50;;;;;;;13.60;11.10;;;4.30;99.90;;;;;;6300403;28;20470;-61
2022/01/02 05:56:54;;;;;;;13.40;12.00;;;4.20;99.90;;;;;;6300324;28;20494;-62
2022/01/02 05:59:57;;;;;;;15.67;12.47;;;4.20;99.90;;;;;;6300256;28;20527;-61
2022/01/02 06:03:00;;;;;;;14.43;11.37;;;4.20;99.90;;;;;;6300073;28;20469;-61
2022/01/02 06:06:04;;;;;;;15.00;12.03;;;4.20;99.90;;;;;;6300652;28;20544;-61
2022/01/02 06:09:07;;;;;;;14.37;11.63;;;4.20;99.90;;;;;;6300045;28;20488;-61
2022/01/02 06:12:12;;;;;;;12.23;11.00;;;4.20;99.90;;;;;;6299931;28;20480;-61
2022/01/02 06:15:15;;;;;;;12.93;11.60;;;4.10;99.90;;;;;;6299511;28;20488;-61
2022/01/02 06:18:18;;;;;;;13.20;10.43;;;4.10;99.90;;;;;;6299417;28;20465;-61
2022/01/02 06:21:21;;;;;;;13.67;11.60;;;4.10;99.90;;;;;;6299730;28;20542;-61
2022/01/02 06:24:25;;;;;;;14.27;11.23;;;4.10;99.90;;;;;;6300024;28;20879;-62
2022/01/02 06:27:29;;;;;;;11.80;10.60;;;4.00;99.90;;;;;;6300445;28;20518;-61
2022/01/02 06:30:32;;;;;;;15.27;11.37;;;4.00;99.90;;;;;;6299935;28;20469;-61
2022/01/02 06:33:36;;;;;;;12.90;11.57;;;4.00;99.90;;;;;;6299693;28;20481;-61
2022/01/02 06:36:39;;;;;;;13.10;11.80;;;3.90;99.90;;;;;;6303267;28;20468;-61
2022/01/02 06:39:42;;;;;;;18.90;10.90;;;3.80;99.90;;;;;;6304962;28;20995;-61
2022/01/02 06:42:47;;;;;;;23.00;11.97;;;3.70;99.90;;;;;;6304342;28;20783;-62
2022/01/02 06:45:50;;;;;;;22.70;10.90;;;3.70;99.90;;;;;;6304567;28;20480;-61
2022/01/02 06:48:54;;;;;;;13.10;11.40;;;3.70;99.90;;;;;;6304792;28;20485;-61
2022/01/02 06:52:17;;;;;;;34.63;14.03;;;3.80;99.90;;;;;;6304054;28;20457;-61
2022/01/02 06:55:20;;;;;;;13.47;11.13;;;3.80;99.90;;;;;;6304484;28;20487;-61
2022/01/02 06:58:25;;;;;;;17.57;12.57;;;3.80;99.90;;;;;;6304278;28;20955;-61
2022/01/02 07:01:28;;;;;;;15.30;11.00;;;3.90;99.90;;;;;;6304245;28;20490;-61
2022/01/02 07:04:31;;;;;;;16.27;11.93;;;3.90;99.90;;;;;;6304289;28;20492;-61
2022/01/02 07:07:41;;;;;;;15.30;12.70;;;4.00;99.90;;;;;;6304792;28;20476;-61
2022/01/02 07:10:44;;;;;;;13.90;11.90;;;4.00;99.90;;;;;;6304119;28;20794;-61
2022/01/02 07:13:48;;;;;;;14.10;10.90;;;4.00;99.90;;;;;;6304462;28;20469;-61
2022/01/02 07:16:51;;;;;;;13.90;11.07;;;4.10;99.90;;;;;;6294615;28;20469;-61
2022/01/02 07:19:54;;;;;;;13.97;11.20;;;4.10;99.90;;;;;;6304287;28;20476;-61
2022/01/02 07:22:57;;;;;;;13.10;10.30;;;4.10;99.90;;;;;;6303542;28;20472;-62
2022/01/02 07:26:01;;;;;;;10.67;9.20;;;4.10;99.90;;;;;;6303234;28;20793;-61
2022/01/02 07:29:05;;;;;;;12.87;10.53;;;4.10;99.90;;;;;;6303626;28;20551;-61
2022/01/02 07:32:08;;;;;;;10.23;9.07;;;4.10;99.90;;;;;;6303779;28;20488;-62
2022/01/02 07:35:11;;;;;;;8.97;8.13;;;4.20;99.90;;;;;;6302933;28;20485;-62
2022/01/02 07:38:14;;;;;;;10.20;8.67;;;4.30;99.90;;;;;;6303352;28;20469;-62
2022/01/02 07:41:18;;;;;;;12.00;9.60;;;4.40;99.90;;;;;;6303346;28;20472;-62
2022/01/02 07:44:22;;;;;;;10.40;8.60;;;4.40;99.90;;;;;;6303677;28;20908;-62
2022/01/02 07:47:25;;;;;;;10.53;9.53;;;4.30;99.90;;;;;;6303118;28;20469;-62
2022/01/02 07:50:28;;;;;;;8.83;7.93;;;4.30;99.90;;;;;;6303456;28;20483;-62
2022/01/02 07:53:32;;;;;;;11.37;9.47;;;4.30;99.90;;;;;;6302127;28;20837;-63
2022/01/02 07:56:35;;;;;;;11.27;9.30;;;4.40;99.90;;;;;;6302799;28;20533;-63
2022/01/02 07:59:39;;;;;;;10.60;9.60;;;4.40;99.90;;;;;;6302607;28;20534;-62
2022/01/02 08:03:02;;;;;;;11.33;9.87;;;4.50;99.90;;;;;;6302635;28;20465;-62
2022/01/02 08:06:06;;;;;;;9.90;8.90;;;4.50;99.90;;;;;;6302763;28;20472;-64
2022/01/02 08:09:09;;;;;;;10.80;9.13;;;4.50;99.90;;;;;;6302595;28;20856;-60
2022/01/02 08:12:12;;;;;;;10.30;9.27;;;4.50;99.90;;;;;;6302406;28;20980;-61
2022/01/02 08:15:16;;;;;;;12.43;10.30;;;4.60;99.90;;;;;;6302518;28;20483;-60
2022/01/02 08:18:20;;;;;;;10.47;9.40;;;4.60;99.90;;;;;;6302696;28;20484;-60
2022/01/02 08:21:23;;;;;;;11.27;10.23;;;4.70;99.90;;;;;;6298224;28;20542;-61
2022/01/02 08:24:26;;;;;;;13.73;11.13;;;4.80;99.90;;;;;;6302553;28;20476;-61
2022/01/02 08:27:29;;;;;;;12.43;11.13;;;4.80;99.90;;;;;;6302110;28;20480;-61
2022/01/02 08:30:33;;;;;;;12.80;11.43;;;4.90;99.90;;;;;;6302374;28;20465;-61
2022/01/02 08:33:37;;;;;;;10.53;9.07;;;5.00;99.90;;;;;;6302045;28;20481;-62
2022/01/02 08:36:40;;;;;;;10.63;9.63;;;5.00;99.90;;;;;;6301838;28;20471;-61
2022/01/02 08:39:43;;;;;;;12.10;10.50;;;5.00;99.90;;;;;;6301685;28;20465;-61
2022/01/02 08:42:46;;;;;;;10.80;9.70;;;4.90;99.90;;;;;;6301216;28;20465;-61
2022/01/02 08:45:51;;;;;;;15.03;10.40;;;5.00;99.90;;;;;;6301712;28;20490;-62
2022/01/02 08:48:54;;;;;;;10.97;9.40;;;5.00;99.90;;;;;;6300933;28;20473;-61
2022/01/02 08:52:00;;;;;;;11.07;9.87;;;5.00;99.90;;;;;;6301465;28;20445;-62
2022/01/02 08:55:03;;;;;;;11.70;9.00;;;5.10;99.90;;;;;;6301938;28;20480;-62
2022/01/02 08:58:08;;;;;;;12.70;10.53;;;5.10;99.90;;;;;;6301069;28;20446;-62
2022/01/02 09:01:12;;;;;;;10.90;9.80;;;5.10;99.90;;;;;;6276725;28;20462;-62
2022/01/02 09:04:16;;;;;;;10.03;9.20;;;5.20;99.90;;;;;;6276551;28;20478;-62
2022/01/02 09:07:19;;;;;;;11.43;10.30;;;5.20;99.90;;;;;;6276728;28;20493;-62
2022/01/02 09:10:22;;;;;;;11.23;10.13;;;5.20;99.90;;;;;;6284775;28;20465;-62
2022/01/02 09:13:26;;;;;;;12.13;10.30;;;5.20;99.90;;;;;;6298994;28;20480;-62
2022/01/02 09:16:33;;;;;;;11.03;9.93;;;5.40;99.90;;;;;;6299339;28;20473;-62
2022/01/02 09:19:37;;;;;;;11.43;10.00;;;5.40;99.90;;;;;;6299588;28;20473;-63
2022/01/02 09:22:40;;;;;;;9.87;8.97;;;5.50;99.90;;;;;;6299456;28;20469;-62
2022/01/02 09:25:44;;;;;;;10.50;9.40;;;5.60;99.90;;;;;;6299315;28;20477;-62
2022/01/02 09:28:47;;;;;;;11.53;10.33;;;5.70;99.90;;;;;;6301466;28;20465;-62
2022/01/02 09:31:52;;;;;;;12.83;10.20;;;5.80;99.90;;;;;;6300900;28;20473;-62
2022/01/02 09:34:55;;;;;;;13.07;11.73;;;5.90;99.90;;;;;;6300805;28;20465;-62
2022/01/02 09:37:58;;;;;;;13.27;10.00;;;5.90;99.90;;;;;;6300955;28;20476;-62
2022/01/02 09:41:01;;;;;;;11.83;10.63;;;6.00;99.90;;;;;;6300329;28;20473;-62
2022/01/02 09:44:05;;;;;;;11.90;10.70;;;6.10;99.90;;;;;;6300659;28;20477;-63
2022/01/02 09:47:11;;;;;;;13.00;11.60;;;6.20;99.90;;;;;;6300543;28;20476;-62
2022/01/02 09:50:14;;;;;;;12.30;11.00;;;6.30;99.90;;;;;;6300844;28;20470;-62
2022/01/02 09:53:17;;;;;;;13.67;11.53;;;6.30;99.90;;;;;;6299805;28;20988;-62
2022/01/02 09:56:21;;;;;;;14.93;13.53;;;6.40;99.90;;;;;;6299840;28;20944;-62
2022/01/02 09:59:24;;;;;;;14.90;11.60;;;6.60;99.90;;;;;;6299799;28;20466;-62
2022/01/02 10:02:59;;;;;;;12.93;11.57;;;6.70;99.90;;;;;;6300276;28;20465;-62
2022/01/02 10:06:03;;;;;;;12.70;11.50;;;6.90;99.90;;;;;;6299746;28;20989;-62
2022/01/02 10:09:10;;;;;;;15.90;14.30;;;7.20;99.90;;;;;;6300195;28;20465;-62
2022/01/02 10:12:26;;;;;;;14.43;12.90;;;7.30;99.90;;;;;;6299927;28;20469;-62
2022/01/02 10:15:30;;;;;;;17.00;13.27;;;7.40;99.90;;;;;;6299835;28;20517;-62
2022/01/02 10:18:34;;;;;;;14.00;12.37;;;7.50;99.90;;;;;;6299704;28;20817;-62
2022/01/02 10:21:39;;;;;;;12.57;11.27;;;7.60;99.90;;;;;;6299422;28;20469;-62
2022/01/02 10:24:47;;;;;;;12.60;11.03;;;7.70;99.90;;;;;;6299872;28;20475;-62
2022/01/02 10:27:50;;;;;;;14.90;11.00;;;7.80;99.90;;;;;;6298056;28;20473;-61
2022/01/02 10:30:57;;;;;;;13.47;11.30;;;7.90;99.90;;;;;;6275378;28;20983;-62
2022/01/02 10:34:01;;;;;;;10.17;9.13;;;8.10;99.90;;;;;;6277767;28;20492;-62
2022/01/02 10:37:04;;;;;;;15.33;9.80;;;8.30;99.90;;;;;;6284360;28;20460;-63
2022/01/02 10:40:25;;;;;;;12.57;10.80;;;8.50;99.90;;;;;;6283162;28;20446;-62
2022/01/02 10:43:31;;;;;;;13.90;11.57;;;8.80;99.90;;;;;;6289808;28;20475;-62
2022/01/02 10:46:34;;;;;;;13.43;12.13;;;8.80;99.90;;;;;;6275277;28;20481;-62
2022/01/02 10:49:53;;;;;;;14.67;11.40;;;8.90;99.90;;;;;;6283340;28;20782;-63
2022/01/02 10:52:57;;;;;;;15.20;12.77;;;9.00;99.90;;;;;;6280249;28;20481;-62
2022/01/02 10:56:00;;;;;;;16.37;12.97;;;9.10;99.90;;;;;;6279098;28;20512;-62
2022/01/02 10:59:03;;;;;;;15.13;11.20;;;9.20;99.90;;;;;;6282040;28;20488;-62
2022/01/02 11:02:09;;;;;;;20.40;11.80;;;9.20;99.90;;;;;;6274351;28;20477;-62
2022/01/02 11:05:16;;;;;;;13.70;11.60;;;9.30;99.90;;;;;;6273987;28;20470;-63
2022/01/02 11:08:21;;;;;;;15.20;11.70;;;9.50;99.90;;;;;;6288629;28;20458;-63
2022/01/02 11:11:24;;;;;;;11.50;10.27;;;9.70;99.90;;;;;;6294289;28;20473;-63
2022/01/02 11:14:28;;;;;;;12.73;10.77;;;10.00;99.80;;;;;;6276887;28;20476;-63
2022/01/02 11:17:31;;;;;;;12.60;10.63;;;10.20;99.10;;;;;;6284691;28;20469;-63
2022/01/02 11:20:36;;;;;;;12.33;11.03;;;10.30;98.70;;;;;;6291880;28;20473;-63
2022/01/02 11:23:50;;;;;;;13.27;9.90;;;11.90;98.70;;;;;;6296760;28;20940;-63
2022/01/02 11:26:58;;;;;;;11.00;9.17;;;15.40;93.40;;;;;;6280008;28;20469;-63
2022/01/02 11:30:40;;;;;;;9.43;7.30;;;16.70;83.40;;;;;;6288154;28;20474;-65
2022/01/02 11:33:44;;;;;;;10.27;9.17;;;16.40;77.90;;;;;;6276399;28;20954;-63
2022/01/02 11:36:49;;;;;;;12.00;9.40;;;15.10;79.30;;;;;;6278518;28;20478;-63
2022/01/02 11:39:54;;;;;;;9.73;8.50;;;16.20;81.10;;;;;;6278479;28;20482;-63
2022/01/02 11:42:57;;;;;;;9.83;8.80;;;19.70;71.30;;;;;;6299548;28;20461;-64
2022/01/02 11:46:15;;;;;;;11.07;9.97;;;23.30;55.50;;;;;;6303149;28;20645;-63
2022/01/02 11:49:26;;;;;;;9.73;8.83;;;25.50;47.20;;;;;;6303680;28;20248;-63
2022/01/02 11:52:34;;;;;;;9.43;8.67;;;27.30;41.30;;;;;;6303322;28;20287;-64
2022/01/02 11:55:37;;;;;;;9.50;8.70;;;29.10;36.80;;;;;;6303403;28;20238;-64
2022/01/02 11:58:51;;;;;;;10.10;7.40;;;30.60;33.00;;;;;;6303176;28;20231;-64
2022/01/02 12:01:57;;;;;;;9.97;9.00;;;31.30;30.00;;;;;;6302943;28;20228;-65
2022/01/02 12:05:14;;;;;;;9.90;9.10;;;30.80;29.50;;;;;;6302342;28;20228;-63
2022/01/02 12:08:34;;;;;;;9.30;8.47;;;28.10;31.00;;;;;;6302607;28;20231;-64
2022/01/02 12:11:45;;;;;;;9.77;8.77;;;25.20;35.10;;;;;;6302656;28;20227;-63
2022/01/02 12:14:54;;;;;;;10.07;9.17;;;25.20;37.30;;;;;;6302512;28;20238;-64
2022/01/02 12:18:07;;;;;;;8.43;7.73;;;26.70;35.50;;;;;;6302581;28;20226;-63
2022/01/02 12:21:12;;;;;;;9.67;8.80;;;28.10;33.40;;;;;;6302469;28;20234;-64
2022/01/02 12:24:30;;;;;;;10.60;9.60;;;29.80;30.30;;;;;;6302096;28;20235;-64
2022/01/02 12:27:35;;;;;;;11.80;9.53;;;29.80;29.70;;;;;;6302671;28;20222;-64
2022/01/02 12:30:40;;;;;;;10.53;9.63;;;28.00;31.20;;;;;;6302176;28;20755;-64
2022/01/02 12:33:45;;;;;;;10.53;9.67;;;27.70;33.00;;;;;;6300891;28;20234;-64
2022/01/02 12:36:49;;;;;;;10.87;9.87;;;27.70;32.20;;;;;;6301602;28;20234;-64
2022/01/02 12:39:54;;;;;;;9.10;8.20;;;27.40;32.90;;;;;;6302139;28;20230;-64
2022/01/02 12:42:57;;;;;;;11.60;10.50;;;28.50;31.90;;;;;;6302698;28;20237;-64
2022/01/02 12:46:00;;;;;;;9.93;8.97;;;28.80;30.80;;;;;;6303520;28;20213;-64
2022/01/02 12:49:04;;;;;;;10.30;9.20;;;28.60;30.70;;;;;;6301726;28;20548;-65
2022/01/02 12:52:10;;;;;;;10.00;9.00;;;28.90;31.10;;;;;;6301729;28;20214;-64
2022/01/02 12:55:14;;;;;;;10.33;9.43;;;29.70;30.30;;;;;;6300929;28;20278;-65
2022/01/02 12:58:23;;;;;;;11.37;10.27;;;30.90;28.90;;;;;;6300971;28;20510;-64
2022/01/02 13:01:26;;;;;;;11.13;10.03;;;31.20;28.00;;;;;;6301275;28;20292;-64
2022/01/02 13:04:31;;;;;;;10.63;9.73;;;31.20;28.10;;;;;;6301321;28;20307;-64
2022/01/02 13:07:36;;;;;;;12.43;11.27;;;30.00;28.60;;;;;;6301452;28;20227;-66
2022/01/02 13:10:40;;;;;;;10.80;9.80;;;28.50;29.70;;;;;;6301144;28;20226;-65
2022/01/02 13:13:50;;;;;;;10.37;9.40;;;26.80;31.80;;;;;;6301018;28;20678;-65
2022/01/02 13:16:53;;;;;;;10.70;9.60;;;24.50;34.50;;;;;;6300964;28;20238;-64
2022/01/02 13:20:00;;;;;;;9.80;8.87;;;22.90;37.10;;;;;;6301145;28;20237;-65
2022/01/02 13:23:03;;;;;;;9.70;8.60;;;22.00;38.80;;;;;;6300778;28;20687;-66
2022/01/02 13:26:18;;;;;;;8.50;7.70;;;21.20;40.30;;;;;;6300798;28;20258;-65
2022/01/02 13:29:25;;;;;;;9.53;8.53;;;20.40;41.90;;;;;;6300362;28;20231;-65
2022/01/02 13:32:28;;;;;;;8.73;7.80;;;19.60;43.30;;;;;;6300824;28;20230;-64
2022/01/02 13:35:32;;;;;;;8.70;7.80;;;18.90;44.10;;;;;;6300522;28;20235;-64
2022/01/02 13:38:49;;;;;;;8.57;7.80;;;18.20;46.00;;;;;;6300282;28;20555;-64
2022/01/02 13:41:54;;;;;;;12.40;9.80;;;17.40;47.80;;;;;;6291505;28;20469;-64
2022/01/02 13:45:07;;;;;;;9.37;7.60;;;16.90;49.20;;;;;;6299504;28;20822;-64
2022/01/02 13:48:31;;;;;;;7.87;7.10;;;16.40;50.40;;;;;;6292348;28;20516;-63
2022/01/02 13:51:34;;;;;;;8.00;6.97;;;16.10;51.70;;;;;;6275390;28;20799;-64
2022/01/02 13:54:37;;;;;;;8.47;7.27;;;15.80;52.50;;;;;;6275597;28;20822;-62
2022/01/02 13:57:42;;;;;;;12.10;8.20;;;15.70;53.20;;;;;;6275089;28;20957;-62
2022/01/02 14:00:46;;;;;;;8.17;7.37;;;15.40;54.10;;;;;;6296915;28;20526;-63
2022/01/02 14:03:59;;;;;;;8.80;8.00;;;15.20;55.10;;;;;;6299043;28;20492;-62
2022/01/02 14:07:08;;;;;;;7.80;7.10;;;15.00;56.20;;;;;;6299304;28;20449;-62
2022/01/02 14:10:11;;;;;;;10.13;9.13;;;15.10;56.70;;;;;;6299468;28;20444;-63
2022/01/02 14:13:17;;;;;;;13.30;7.77;;;15.40;56.80;;;;;;6299794;28;20469;-63
2022/01/02 14:16:42;;;;;;;12.47;7.40;;;15.50;56.20;;;;;;6298669;28;20462;-62
2022/01/02 14:19:47;;;;;;;9.10;8.20;;;15.30;56.60;;;;;;6300024;28;20461;-62
2022/01/02 14:22:50;;;;;;;8.47;7.40;;;14.90;57.30;;;;;;6299931;28;20469;-62
2022/01/02 14:25:53;;;;;;;8.23;7.30;;;14.50;58.10;;;;;;6300168;28;20484;-62
2022/01/02 14:29:00;;;;;;;9.13;7.67;;;14.30;59.80;;;;;;6299286;28;20469;-62
2022/01/02 14:32:03;;;;;;;10.33;8.60;;;13.90;60.90;;;;;;6299941;28;20465;-62
2022/01/02 14:35:08;;;;;;;8.23;7.53;;;13.70;62.30;;;;;;6299507;28;20477;-62
2022/01/02 14:38:12;;;;;;;9.20;8.07;;;13.40;63.90;;;;;;6299473;28;20473;-62
2022/01/02 14:41:17;;;;;;;11.40;7.50;;;13.20;65.50;;;;;;6299139;28;21003;-62
2022/01/02 14:44:22;;;;;;;11.43;8.43;;;13.00;66.90;;;;;;6294555;28;20810;-62
2022/01/02 14:47:25;;;;;;;8.80;7.90;;;12.80;68.80;;;;;;6299587;28;20489;-62
2022/01/02 14:50:29;;;;;;;9.03;7.50;;;12.60;69.90;;;;;;6299467;28;20465;-62
2022/01/02 14:53:33;;;;;;;9.97;7.80;;;12.50;71.50;;;;;;6299443;28;20461;-62
2022/01/02 14:56:37;;;;;;;8.93;7.77;;;12.30;73.20;;;;;;6300654;28;20554;-62
2022/01/02 14:59:43;;;;;;;9.37;8.27;;;12.20;75.10;;;;;;6304051;28;20812;-62
2022/01/02 15:02:47;;;;;;;8.77;7.87;;;12.00;76.60;;;;;;6303749;28;20503;-62
2022/01/02 15:05:50;;;;;;;13.73;8.20;;;11.90;78.10;;;;;;6303836;28;20481;-62
2022/01/02 15:08:53;;;;;;;11.93;8.27;;;11.80;79.40;;;;;;6303990;28;20481;-61
2022/01/02 15:11:57;;;;;;;11.50;9.03;;;11.70;80.50;;;;;;6304417;28;20465;-61
2022/01/02 15:15:02;;;;;;;8.47;7.67;;;11.60;81.70;;;;;;6303737;28;20480;-61
2022/01/02 15:18:05;;;;;;;12.97;8.13;;;11.40;82.90;;;;;;6304315;28;20476;-61
2022/01/02 15:21:08;;;;;;;13.77;9.17;;;11.40;84.80;;;;;;6303772;28;20469;-61
2022/01/02 15:24:12;;;;;;;8.23;7.43;;;11.30;85.70;;;;;;6303675;28;20473;-61
2022/01/02 15:27:15;;;;;;;11.20;8.77;;;11.20;87.00;;;;;;6303825;28;20469;-61
2022/01/02 15:30:20;;;;;;;23.03;15.80;;;11.10;88.50;;;;;;6303460;28;20477;-61
2022/01/02 15:33:23;;;;;;;21.30;14.17;;;11.00;90.00;;;;;;6303381;28;20488;-61
2022/01/02 15:36:26;;;;;;;19.27;14.17;;;10.90;90.40;;;;;;6303299;28;20484;-61
2022/01/02 15:39:29;;;;;;;18.60;11.97;;;10.80;90.80;;;;;;6304227;28;20480;-61
2022/01/02 15:42:33;;;;;;;14.53;10.63;;;10.70;91.20;;;;;;6303456;28;20491;-61
2022/01/02 15:45:38;;;;;;;11.23;9.73;;;10.70;91.80;;;;;;6303136;28;20473;-65
2022/01/02 15:48:42;;;;;;;13.20;9.90;;;10.70;92.20;;;;;;6303346;28;20839;-61
2022/01/02 15:51:45;;;;;;;11.40;9.60;;;10.60;92.40;;;;;;6291926;28;20960;-61
2022/01/02 15:54:48;;;;;;;12.47;9.10;;;10.50;92.70;;;;;;6288442;28;20481;-62
2022/01/02 15:57:51;;;;;;;10.50;8.87;;;10.40;93.10;;;;;;6290454;28;20465;-61
2022/01/02 16:00:57;;;;;;;11.10;8.90;;;10.40;93.60;;;;;;6291811;28;20972;-61